Ben Hur, Texas
Current Conditions -  °F | °C
As of 10:51 PM on Wednesday 28 Jan 2015 (Local Time) from KCNW Reporting Station
Clear Clear  
Wind Chill: 59°   Ceiling: Unl
Heat Index: 59°   Visibility: 10mi
Dew Point: 43°   Wind: 9mph
Humidity: 55%   Direction: 180°S
Pressure: 30.08"   Gusts: NA
Location:  31.5521°N, 96.8628°W
Report Text: KCNW 290451Z 18008KT 10SM SKC 15/06 A3008
Loading
Personal Weather Stations






























Interactive Weather Map New forecast layout! Learn more

10-Day Weather Forecast

Advertisements
Track Severe Weather on mobile